sensor_id;sensor_type;location;lat;lon;timestamp;pressure;altitude;pressure_sealevel;temperature
76713;BMP280;65640;43.154;25.658;2023-04-25T00:02:20;99933.19;;;14.17
76713;BMP280;65640;43.154;25.658;2023-04-25T00:04:45;99926.22;;;14.12
76713;BMP280;65640;43.154;25.658;2023-04-25T00:07:11;99919.25;;;14.16
76713;BMP280;65640;43.154;25.658;2023-04-25T00:09:37;99907.31;;;14.10
76713;BMP280;65640;43.154;25.658;2023-04-25T00:12:03;99901.13;;;14.06
76713;BMP280;65640;43.154;25.658;2023-04-25T00:14:29;99895.88;;;14.15
76713;BMP280;65640;43.154;25.658;2023-04-25T00:16:55;99897.28;;;14.12
76713;BMP280;65640;43.154;25.658;2023-04-25T00:19:21;99893.69;;;14.08
76713;BMP280;65640;43.154;25.658;2023-04-25T00:21:46;99884.25;;;14.16
76713;BMP280;65640;43.154;25.658;2023-04-25T00:24:12;99872.81;;;14.12
76713;BMP280;65640;43.154;25.658;2023-04-25T00:26:38;99875.88;;;13.97
76713;BMP280;65640;43.154;25.658;2023-04-25T00:29:03;99867.34;;;13.91
76713;BMP280;65640;43.154;25.658;2023-04-25T00:31:29;99868.09;;;13.92
76713;BMP280;65640;43.154;25.658;2023-04-25T00:33:54;99869.69;;;14.01
76713;BMP280;65640;43.154;25.658;2023-04-25T00:36:20;99859.00;;;14.06
76713;BMP280;65640;43.154;25.658;2023-04-25T00:38:45;99852.63;;;13.99
76713;BMP280;65640;43.154;25.658;2023-04-25T00:41:11;99851.41;;;13.96
76713;BMP280;65640;43.154;25.658;2023-04-25T00:43:37;99845.06;;;13.97
76713;BMP280;65640;43.154;25.658;2023-04-25T00:46:03;99836.97;;;13.85
76713;BMP280;65640;43.154;25.658;2023-04-25T00:48:28;99830.78;;;13.81
76713;BMP280;65640;43.154;25.658;2023-04-25T00:50:58;99840.53;;;13.80
76713;BMP280;65640;43.154;25.658;2023-04-25T00:53:26;99837.56;;;13.73
76713;BMP280;65640;43.154;25.658;2023-04-25T00:55:52;99842.34;;;13.71
76713;BMP280;65640;43.154;25.658;2023-04-25T00:58:19;99847.31;;;13.73
76713;BMP280;65640;43.154;25.658;2023-04-25T01:00:45;99835.53;;;13.70
76713;BMP280;65640;43.154;25.658;2023-04-25T01:03:12;99832.78;;;13.75
76713;BMP280;65640;43.154;25.658;2023-04-25T01:05:40;99823.81;;;13.76
76713;BMP280;65640;43.154;25.658;2023-04-25T01:08:07;99826.09;;;13.78
76713;BMP280;65640;43.154;25.658;2023-04-25T01:10:32;99820.84;;;13.69
76713;BMP280;65640;43.154;25.658;2023-04-25T01:12:58;99819.13;;;13.65
76713;BMP280;65640;43.154;25.658;2023-04-25T01:15:23;99814.63;;;13.57
76713;BMP280;65640;43.154;25.658;2023-04-25T01:17:49;99810.13;;;13.57
76713;BMP280;65640;43.154;25.658;2023-04-25T01:20:15;99810.91;;;13.58
76713;BMP280;65640;43.154;25.658;2023-04-25T01:22:41;99802.09;;;13.62
76713;BMP280;65640;43.154;25.658;2023-04-25T01:25:07;99799.28;;;13.59
76713;BMP280;65640;43.154;25.658;2023-04-25T01:27:33;99796.06;;;13.53
76713;BMP280;65640;43.154;25.658;2023-04-25T01:29:59;99790.78;;;13.45
76713;BMP280;65640;43.154;25.658;2023-04-25T01:32:25;99780.25;;;13.45
76713;BMP280;65640;43.154;25.658;2023-04-25T01:34:51;99774.03;;;13.40
76713;BMP280;65640;43.154;25.658;2023-04-25T01:37:16;99769.13;;;13.48
76713;BMP280;65640;43.154;25.658;2023-04-25T01:39:43;99768.53;;;13.51
76713;BMP280;65640;43.154;25.658;2023-04-25T01:42:08;99754.28;;;13.52
76713;BMP280;65640;43.154;25.658;2023-04-25T01:44:34;99756.91;;;13.60
76713;BMP280;65640;43.154;25.658;2023-04-25T01:46:59;99751.50;;;13.57
76713;BMP280;65640;43.154;25.658;2023-04-25T01:49:24;99745.75;;;13.55
76713;BMP280;65640;43.154;25.658;2023-04-25T01:51:50;99736.97;;;13.51
76713;BMP280;65640;43.154;25.658;2023-04-25T01:54:16;99734.47;;;13.54
76713;BMP280;65640;43.154;25.658;2023-04-25T01:56:42;99727.53;;;13.50
76713;BMP280;65640;43.154;25.658;2023-04-25T01:59:08;99724.59;;;13.51
76713;BMP280;65640;43.154;25.658;2023-04-25T02:01:33;99722.56;;;13.57
76713;BMP280;65640;43.154;25.658;2023-04-25T02:03:59;99723.03;;;13.59
76713;BMP280;65640;43.154;25.658;2023-04-25T02:06:24;99714.06;;;13.60
76713;BMP280;65640;43.154;25.658;2023-04-25T02:08:50;99712.06;;;13.57
76713;BMP280;65640;43.154;25.658;2023-04-25T02:11:15;99699.38;;;13.50
76713;BMP280;65640;43.154;25.658;2023-04-25T02:13:40;99699.94;;;13.38
76713;BMP280;65640;43.154;25.658;2023-04-25T02:16:06;99711.06;;;13.35
76713;BMP280;65640;43.154;25.658;2023-04-25T02:18:31;99706.59;;;13.27
76713;BMP280;65640;43.154;25.658;2023-04-25T02:20:59;99699.91;;;13.21
76713;BMP280;65640;43.154;25.658;2023-04-25T02:23:25;99700.03;;;13.16
76713;BMP280;65640;43.154;25.658;2023-04-25T02:25:50;99709.44;;;13.09
76713;BMP280;65640;43.154;25.658;2023-04-25T02:28:17;99703.50;;;12.94
76713;BMP280;65640;43.154;25.658;2023-04-25T02:30:42;99696.53;;;12.90
76713;BMP280;65640;43.154;25.658;2023-04-25T02:33:07;99701.19;;;12.84
76713;BMP280;65640;43.154;25.658;2023-04-25T02:35:33;99709.47;;;12.78
76713;BMP280;65640;43.154;25.658;2023-04-25T02:37:58;99705.25;;;12.68
76713;BMP280;65640;43.154;25.658;2023-04-25T02:40:24;99699.41;;;12.71
76713;BMP280;65640;43.154;25.658;2023-04-25T02:42:49;99707.16;;;12.76
76713;BMP280;65640;43.154;25.658;2023-04-25T02:45:15;99699.75;;;12.78
76713;BMP280;65640;43.154;25.658;2023-04-25T02:47:40;99694.78;;;12.77
76713;BMP280;65640;43.154;25.658;2023-04-25T02:50:06;99701.00;;;12.81
76713;BMP280;65640;43.154;25.658;2023-04-25T02:52:32;99699.16;;;12.81
76713;BMP280;65640;43.154;25.658;2023-04-25T02:54:57;99698.69;;;12.88
76713;BMP280;65640;43.154;25.658;2023-04-25T02:57:22;99704.13;;;12.91
76713;BMP280;65640;43.154;25.658;2023-04-25T02:59:48;99702.38;;;12.87
76713;BMP280;65640;43.154;25.658;2023-04-25T03:02:13;99704.09;;;12.83
76713;BMP280;65640;43.154;25.658;2023-04-25T03:04:39;99701.13;;;12.76
76713;BMP280;65640;43.154;25.658;2023-04-25T03:07:04;99703.63;;;12.81
76713;BMP280;65640;43.154;25.658;2023-04-25T03:09:30;99704.09;;;12.83
76713;BMP280;65640;43.154;25.658;2023-04-25T03:11:55;99713.66;;;12.79
76713;BMP280;65640;43.154;25.658;2023-04-25T03:14:21;99712.88;;;12.78
76713;BMP280;65640;43.154;25.658;2023-04-25T03:16:46;99721.78;;;12.69
76713;BMP280;65640;43.154;25.658;2023-04-25T03:19:11;99732.88;;;12.66
76713;BMP280;65640;43.154;25.658;2023-04-25T03:21:37;99730.09;;;12.62
76713;BMP280;65640;43.154;25.658;2023-04-25T03:24:04;99738.19;;;12.74
76713;BMP280;65640;43.154;25.658;2023-04-25T03:26:29;99743.25;;;12.71
76713;BMP280;65640;43.154;25.658;2023-04-25T03:28:55;99735.81;;;12.64
76713;BMP280;65640;43.154;25.658;2023-04-25T03:31:20;99741.38;;;12.63
76713;BMP280;65640;43.154;25.658;2023-04-25T03:33:46;99734.59;;;12.70
76713;BMP280;65640;43.154;25.658;2023-04-25T03:36:11;99729.44;;;12.79
76713;BMP280;65640;43.154;25.658;2023-04-25T03:38:36;99729.91;;;12.89
76713;BMP280;65640;43.154;25.658;2023-04-25T03:41:02;99724.06;;;12.92
76713;BMP280;65640;43.154;25.658;2023-04-25T03:43:28;99729.97;;;12.98
76713;BMP280;65640;43.154;25.658;2023-04-25T03:45:53;99723.16;;;12.97
76713;BMP280;65640;43.154;25.658;2023-04-25T03:48:19;99729.00;;;12.94
76713;BMP280;65640;43.154;25.658;2023-04-25T03:50:49;99726.88;;;12.96
76713;BMP280;65640;43.154;25.658;2023-04-25T03:53:15;99718.41;;;12.99
76713;BMP280;65640;43.154;25.658;2023-04-25T03:55:40;99721.59;;;12.96
76713;BMP280;65640;43.154;25.658;2023-04-25T03:58:06;99722.69;;;12.95
76713;BMP280;65640;43.154;25.658;2023-04-25T04:00:33;99726.44;;;13.03
76713;BMP280;65640;43.154;25.658;2023-04-25T04:02:58;99732.63;;;13.07
76713;BMP280;65640;43.154;25.658;2023-04-25T04:05:24;99727.84;;;13.09
76713;BMP280;65640;43.154;25.658;2023-04-25T04:07:49;99724.44;;;13.08
76713;BMP280;65640;43.154;25.658;2023-04-25T04:10:15;99725.97;;;13.09
76713;BMP280;65640;43.154;25.658;2023-04-25T04:12:40;99721.81;;;13.08
76713;BMP280;65640;43.154;25.658;2023-04-25T04:15:06;99716.13;;;13.06
76713;BMP280;65640;43.154;25.658;2023-04-25T04:17:32;99720.72;;;13.09
76713;BMP280;65640;43.154;25.658;2023-04-25T04:19:58;99726.91;;;13.13
76713;BMP280;65640;43.154;25.658;2023-04-25T04:22:23;99725.91;;;13.23
76713;BMP280;65640;43.154;25.658;2023-04-25T04:24:49;99718.50;;;13.25
76713;BMP280;65640;43.154;25.658;2023-04-25T04:27:16;99719.44;;;13.29
76713;BMP280;65640;43.154;25.658;2023-04-25T04:29:43;99719.44;;;13.29
76713;BMP280;65640;43.154;25.658;2023-04-25T04:32:08;99718.97;;;13.35
76713;BMP280;65640;43.154;25.658;2023-04-25T04:34:34;99718.81;;;13.40
76713;BMP280;65640;43.154;25.658;2023-04-25T04:37:00;99715.41;;;13.40
76713;BMP280;65640;43.154;25.658;2023-04-25T04:39:25;99712.03;;;13.48
76713;BMP280;65640;43.154;25.658;2023-04-25T04:41:51;99717.16;;;13.53
76713;BMP280;65640;43.154;25.658;2023-04-25T04:44:16;99714.38;;;13.50
76713;BMP280;65640;43.154;25.658;2023-04-25T04:46:42;99708.78;;;13.60
76713;BMP280;65640;43.154;25.658;2023-04-25T04:49:11;99702.50;;;13.69
76713;BMP280;65640;43.154;25.658;2023-04-25T04:51:37;99703.09;;;13.83
76713;BMP280;65640;43.154;25.658;2023-04-25T04:54:04;99711.00;;;13.92
76713;BMP280;65640;43.154;25.658;2023-04-25T04:56:29;99718.59;;;13.94
76713;BMP280;65640;43.154;25.658;2023-04-25T04:58:56;99713.50;;;13.97
76713;BMP280;65640;43.154;25.658;2023-04-25T05:01:22;99709.63;;;13.95
76713;BMP280;65640;43.154;25.658;2023-04-25T05:03:47;99711.47;;;13.85
76713;BMP280;65640;43.154;25.658;2023-04-25T05:06:13;99711.47;;;13.85
76713;BMP280;65640;43.154;25.658;2023-04-25T05:08:38;99702.63;;;13.90
76713;BMP280;65640;43.154;25.658;2023-04-25T05:11:04;99707.00;;;13.95
76713;BMP280;65640;43.154;25.658;2023-04-25T05:13:29;99706.19;;;14.03
76713;BMP280;65640;43.154;25.658;2023-04-25T05:15:54;99715.66;;;14.12
76713;BMP280;65640;43.154;25.658;2023-04-25T05:18:20;99713.59;;;14.26
76713;BMP280;65640;43.154;25.658;2023-04-25T05:20:45;99713.75;;;14.39
76713;BMP280;65640;43.154;25.658;2023-04-25T05:23:11;99708.47;;;14.39
76713;BMP280;65640;43.154;25.658;2023-04-25T05:25:36;99703.19;;;14.47
76713;BMP280;65640;43.154;25.658;2023-04-25T05:28:02;99697.63;;;14.49
76713;BMP280;65640;43.154;25.658;2023-04-25T05:30:27;99707.81;;;14.59
76713;BMP280;65640;43.154;25.658;2023-04-25T05:32:53;99704.03;;;14.68
76713;BMP280;65640;43.154;25.658;2023-04-25T05:35:18;99712.25;;;14.75
76713;BMP280;65640;43.154;25.658;2023-04-25T05:37:43;99712.38;;;14.79
76713;BMP280;65640;43.154;25.658;2023-04-25T05:40:09;99713.59;;;14.90
76713;BMP280;65640;43.154;25.658;2023-04-25T05:42:35;99715.28;;;14.95
76713;BMP280;65640;43.154;25.658;2023-04-25T05:45:00;99716.94;;;14.99
76713;BMP280;65640;43.154;25.658;2023-04-25T05:47:26;99716.66;;;14.92
76713;BMP280;65640;43.154;25.658;2023-04-25T05:49:52;99711.91;;;14.86
76713;BMP280;65640;43.154;25.658;2023-04-25T05:52:18;99711.75;;;14.82
76713;BMP280;65640;43.154;25.658;2023-04-25T05:54:43;99702.78;;;14.83
76713;BMP280;65640;43.154;25.658;2023-04-25T05:57:08;99708.66;;;14.80
76713;BMP280;65640;43.154;25.658;2023-04-25T05:59:34;99715.66;;;14.85
76713;BMP280;65640;43.154;25.658;2023-04-25T06:02:00;99712.28;;;14.96
76713;BMP280;65640;43.154;25.658;2023-04-25T06:04:25;99718.22;;;15.23
76713;BMP280;65640;43.154;25.658;2023-04-25T06:06:51;99711.41;;;15.42
76713;BMP280;65640;43.154;25.658;2023-04-25T06:09:16;99715.63;;;15.64
76713;BMP280;65640;43.154;25.658;2023-04-25T06:11:42;99726.03;;;15.81
76713;BMP280;65640;43.154;25.658;2023-04-25T06:14:07;99710.94;;;16.02
76713;BMP280;65640;43.154;25.658;2023-04-25T06:16:33;99717.38;;;16.14
76713;BMP280;65640;43.154;25.658;2023-04-25T06:18:58;99716.59;;;16.13
76713;BMP280;65640;43.154;25.658;2023-04-25T06:21:24;99717.16;;;15.86
76713;BMP280;65640;43.154;25.658;2023-04-25T06:23:49;99712.22;;;15.84
76713;BMP280;65640;43.154;25.658;2023-04-25T06:26:14;99713.69;;;15.94
76713;BMP280;65640;43.154;25.658;2023-04-25T06:28:40;99707.97;;;16.37
76713;BMP280;65640;43.154;25.658;2023-04-25T06:31:05;99712.19;;;16.62
76713;BMP280;65640;43.154;25.658;2023-04-25T06:33:31;99711.75;;;16.72
76713;BMP280;65640;43.154;25.658;2023-04-25T06:35:56;99709.56;;;16.74
76713;BMP280;65640;43.154;25.658;2023-04-25T06:38:22;99702.97;;;16.68
76713;BMP280;65640;43.154;25.658;2023-04-25T06:40:47;99705.56;;;16.80
76713;BMP280;65640;43.154;25.658;2023-04-25T06:43:12;99707.91;;;16.94
76713;BMP280;65640;43.154;25.658;2023-04-25T06:45:38;99705.03;;;16.99
76713;BMP280;65640;43.154;25.658;2023-04-25T06:48:03;99702.28;;;16.95
76713;BMP280;65640;43.154;25.658;2023-04-25T06:50:29;99706.13;;;16.98
76713;BMP280;65640;43.154;25.658;2023-04-25T06:52:54;99709.44;;;16.95
76713;BMP280;65640;43.154;25.658;2023-04-25T06:55:20;99709.09;;;16.96
76713;BMP280;65640;43.154;25.658;2023-04-25T06:57:45;99710.00;;;16.88
76713;BMP280;65640;43.154;25.658;2023-04-25T07:00:11;99704.94;;;16.95
76713;BMP280;65640;43.154;25.658;2023-04-25T07:02:37;99698.09;;;16.94
76713;BMP280;65640;43.154;25.658;2023-04-25T07:05:03;99689.19;;;16.87
76713;BMP280;65640;43.154;25.658;2023-04-25T07:07:29;99700.22;;;16.89
76713;BMP280;65640;43.154;25.658;2023-04-25T07:09:55;99705.38;;;16.85
76713;BMP280;65640;43.154;25.658;2023-04-25T07:12:21;99700.22;;;16.89
76713;BMP280;65640;43.154;25.658;2023-04-25T07:14:46;99707.56;;;16.95
76713;BMP280;65640;43.154;25.658;2023-04-25T07:17:12;99710.00;;;17.13
76713;BMP280;65640;43.154;25.658;2023-04-25T07:19:37;99709.88;;;17.09
76713;BMP280;65640;43.154;25.658;2023-04-25T07:22:05;99713.16;;;17.18
76713;BMP280;65640;43.154;25.658;2023-04-25T07:24:30;99714.75;;;17.47
76713;BMP280;65640;43.154;25.658;2023-04-25T07:26:56;99710.72;;;17.65
76713;BMP280;65640;43.154;25.658;2023-04-25T07:29:21;99708.84;;;17.93
76713;BMP280;65640;43.154;25.658;2023-04-25T07:31:47;99704.63;;;18.20
76713;BMP280;65640;43.154;25.658;2023-04-25T07:34:12;99700.19;;;18.40
76713;BMP280;65640;43.154;25.658;2023-04-25T07:36:38;99705.28;;;18.49
76713;BMP280;65640;43.154;25.658;2023-04-25T07:39:03;99706.91;;;18.53
76713;BMP280;65640;43.154;25.658;2023-04-25T07:41:29;99710.34;;;18.38
76713;BMP280;65640;43.154;25.658;2023-04-25T07:43:54;99707.53;;;18.47
76713;BMP280;65640;43.154;25.658;2023-04-25T07:46:19;99712.03;;;18.62
76713;BMP280;65640;43.154;25.658;2023-04-25T07:48:45;99707.25;;;18.67
76713;BMP280;65640;43.154;25.658;2023-04-25T07:51:11;99708.34;;;18.82
76713;BMP280;65640;43.154;25.658;2023-04-25T07:53:37;99709.72;;;18.91
76713;BMP280;65640;43.154;25.658;2023-04-25T07:56:03;99708.50;;;18.89
76713;BMP280;65640;43.154;25.658;2023-04-25T07:58:28;99701.78;;;18.95
76713;BMP280;65640;43.154;25.658;2023-04-25T08:00:54;99703.50;;;19.03
76713;BMP280;65640;43.154;25.658;2023-04-25T08:03:19;99703.50;;;19.41
76713;BMP280;65640;43.154;25.658;2023-04-25T08:05:46;99708.41;;;19.59
76713;BMP280;65640;43.154;25.658;2023-04-25T08:08:11;99700.66;;;19.92
76713;BMP280;65640;43.154;25.658;2023-04-25T08:10:37;99701.56;;;20.00
76713;BMP280;65640;43.154;25.658;2023-04-25T08:13:02;99704.50;;;20.17
76713;BMP280;65640;43.154;25.658;2023-04-25T08:15:28;99695.47;;;20.22
76713;BMP280;65640;43.154;25.658;2023-04-25T08:17:53;99704.78;;;20.61
76713;BMP280;65640;43.154;25.658;2023-04-25T08:20:18;99700.47;;;20.79
76713;BMP280;65640;43.154;25.658;2023-04-25T08:22:45;99702.13;;;20.87
76713;BMP280;65640;43.154;25.658;2023-04-25T08:25:11;99699.72;;;20.79
76713;BMP280;65640;43.154;25.658;2023-04-25T08:27:36;99694.75;;;20.77
76713;BMP280;65640;43.154;25.658;2023-04-25T08:30:03;99702.47;;;20.86
76713;BMP280;65640;43.154;25.658;2023-04-25T08:32:29;99693.88;;;21.00
76713;BMP280;65640;43.154;25.658;2023-04-25T08:34:54;99686.50;;;21.16
76713;BMP280;65640;43.154;25.658;2023-04-25T08:37:21;99691.00;;;21.12
76713;BMP280;65640;43.154;25.658;2023-04-25T08:39:46;99691.47;;;20.87
76713;BMP280;65640;43.154;25.658;2023-04-25T08:42:14;99691.91;;;20.63
76713;BMP280;65640;43.154;25.658;2023-04-25T08:44:40;99682.94;;;20.22
76713;BMP280;65640;43.154;25.658;2023-04-25T08:47:06;99694.69;;;19.99
76713;BMP280;65640;43.154;25.658;2023-04-25T08:49:31;99685.69;;;20.07
76713;BMP280;65640;43.154;25.658;2023-04-25T08:51:59;99681.53;;;20.32
76713;BMP280;65640;43.154;25.658;2023-04-25T08:54:27;99685.81;;;20.36
76713;BMP280;65640;43.154;25.658;2023-04-25T08:56:54;99676.50;;;20.23
76713;BMP280;65640;43.154;25.658;2023-04-25T08:59:22;99683.50;;;20.35
76713;BMP280;65640;43.154;25.658;2023-04-25T09:01:49;99680.81;;;20.87
76713;BMP280;65640;43.154;25.658;2023-04-25T09:04:15;99675.16;;;21.22
76713;BMP280;65640;43.154;25.658;2023-04-25T09:06:40;99679.41;;;21.67
76713;BMP280;65640;43.154;25.658;2023-04-25T09:09:08;99671.41;;;22.08
76713;BMP280;65640;43.154;25.658;2023-04-25T09:11:36;99683.47;;;21.98
76713;BMP280;65640;43.154;25.658;2023-04-25T09:14:21;99679.84;;;21.32
76713;BMP280;65640;43.154;25.658;2023-04-25T09:19:26;99685.41;;;20.61
76713;BMP280;65640;43.154;25.658;2023-04-25T09:21:55;99684.63;;;20.34
76713;BMP280;65640;43.154;25.658;2023-04-25T09:27:06;99665.09;;;21.42
76713;BMP280;65640;43.154;25.658;2023-04-25T09:29:36;99659.88;;;21.97
76713;BMP280;65640;43.154;25.658;2023-04-25T09:32:18;99676.16;;;21.88
76713;BMP280;65640;43.154;25.658;2023-04-25T09:34:46;99671.72;;;21.18
76713;BMP280;65640;43.154;25.658;2023-04-25T09:37:29;99669.00;;;21.52
76713;BMP280;65640;43.154;25.658;2023-04-25T09:39:59;99677.97;;;21.73
76713;BMP280;65640;43.154;25.658;2023-04-25T09:42:28;99667.06;;;21.92
76713;BMP280;65640;43.154;25.658;2023-04-25T09:44:57;99662.41;;;21.82
76713;BMP280;65640;43.154;25.658;2023-04-25T09:47:23;99678.34;;;21.35
76713;BMP280;65640;43.154;25.658;2023-04-25T09:49:50;99734.94;;;20.99
76713;BMP280;65640;43.154;25.658;2023-04-25T09:52:17;99727.47;;;19.64
76713;BMP280;65640;43.154;25.658;2023-04-25T09:54:47;99740.06;;;18.78
76713;BMP280;65640;43.154;25.658;2023-04-25T09:57:15;99742.41;;;18.17
76713;BMP280;65640;43.154;25.658;2023-04-25T09:59:48;99751.94;;;17.26
76713;BMP280;65640;43.154;25.658;2023-04-25T10:02:16;99751.19;;;16.65
76713;BMP280;65640;43.154;25.658;2023-04-25T10:04:45;99750.00;;;16.30
76713;BMP280;65640;43.154;25.658;2023-04-25T10:07:13;99753.25;;;16.15
76713;BMP280;65640;43.154;25.658;2023-04-25T10:09:39;99747.38;;;16.09
76713;BMP280;65640;43.154;25.658;2023-04-25T10:12:06;99752.97;;;15.95
76713;BMP280;65640;43.154;25.658;2023-04-25T10:14:33;99745.81;;;15.96
76713;BMP280;65640;43.154;25.658;2023-04-25T10:16:59;99749.75;;;15.90
76713;BMP280;65640;43.154;25.658;2023-04-25T10:19:25;99748.56;;;15.79
76713;BMP280;65640;43.154;25.658;2023-04-25T10:21:55;99739.94;;;15.70
76713;BMP280;65640;43.154;25.658;2023-04-25T10:24:22;99750.25;;;15.62
76713;BMP280;65640;43.154;25.658;2023-04-25T10:26:48;99763.19;;;15.55
76713;BMP280;65640;43.154;25.658;2023-04-25T10:29:22;99756.25;;;15.51
76713;BMP280;65640;43.154;25.658;2023-04-25T10:31:49;99763.28;;;15.59
76713;BMP280;65640;43.154;25.658;2023-04-25T10:34:15;99753.66;;;15.63
76713;BMP280;65640;43.154;25.658;2023-04-25T10:36:41;99750.38;;;15.66
76713;BMP280;65640;43.154;25.658;2023-04-25T10:39:07;99737.47;;;15.73
76713;BMP280;65640;43.154;25.658;2023-04-25T10:41:57;99719.97;;;15.81
76713;BMP280;65640;43.154;25.658;2023-04-25T10:44:26;99720.38;;;15.91
76713;BMP280;65640;43.154;25.658;2023-04-25T10:46:51;99709.97;;;15.95
76713;BMP280;65640;43.154;25.658;2023-04-25T10:49:36;99700.75;;;16.01
76713;BMP280;65640;43.154;25.658;2023-04-25T11:00:10;99685.63;;;16.71
76713;BMP280;65640;43.154;25.658;2023-04-25T11:03:02;99689.06;;;16.83
76713;BMP280;65640;43.154;25.658;2023-04-25T11:05:34;99686.84;;;17.10
76713;BMP280;65640;43.154;25.658;2023-04-25T11:08:00;99693.19;;;17.33
76713;BMP280;65640;43.154;25.658;2023-04-25T11:10:27;99689.28;;;17.55
76713;BMP280;65640;43.154;25.658;2023-04-25T11:12:53;99693.44;;;17.83
76713;BMP280;65640;43.154;25.658;2023-04-25T11:15:19;99682.47;;;18.13
76713;BMP280;65640;43.154;25.658;2023-04-25T11:17:44;99688.50;;;18.60
76713;BMP280;65640;43.154;25.658;2023-04-25T11:20:12;99681.19;;;18.88
76713;BMP280;65640;43.154;25.658;2023-04-25T11:22:39;99679.94;;;19.02
76713;BMP280;65640;43.154;25.658;2023-04-25T11:25:07;99683.19;;;19.11
76713;BMP280;65640;43.154;25.658;2023-04-25T11:27:33;99685.00;;;19.07
76713;BMP280;65640;43.154;25.658;2023-04-25T11:30:15;99680.44;;;18.88
76713;BMP280;65640;43.154;25.658;2023-04-25T11:32:41;99687.59;;;18.68
76713;BMP280;65640;43.154;25.658;2023-04-25T11:35:07;99686.63;;;18.61
76713;BMP280;65640;43.154;25.658;2023-04-25T11:37:32;99678.56;;;18.73
76713;BMP280;65640;43.154;25.658;2023-04-25T11:39:59;99675.50;;;19.06
76713;BMP280;65640;43.154;25.658;2023-04-25T11:42:25;99673.75;;;19.32
76713;BMP280;65640;43.154;25.658;2023-04-25T11:44:51;99677.28;;;19.78
76713;BMP280;65640;43.154;25.658;2023-04-25T11:47:16;99669.66;;;20.49
76713;BMP280;65640;43.154;25.658;2023-04-25T11:49:42;99662.34;;;20.68
76713;BMP280;65640;43.154;25.658;2023-04-25T11:52:07;99647.47;;;20.94
76713;BMP280;65640;43.154;25.658;2023-04-25T11:54:35;99644.31;;;21.18
76713;BMP280;65640;43.154;25.658;2023-04-25T11:57:01;99638.72;;;21.30
76713;BMP280;65640;43.154;25.658;2023-04-25T11:59:26;99636.16;;;21.04
76713;BMP280;65640;43.154;25.658;2023-04-25T12:01:52;99642.69;;;21.10
76713;BMP280;65640;43.154;25.658;2023-04-25T12:04:18;99629.34;;;21.06
76713;BMP280;65640;43.154;25.658;2023-04-25T12:06:46;99623.91;;;21.32
76713;BMP280;65640;43.154;25.658;2023-04-25T12:09:20;99622.81;;;21.37
76713;BMP280;65640;43.154;25.658;2023-04-25T12:11:54;99627.03;;;21.05
76713;BMP280;65640;43.154;25.658;2023-04-25T12:14:25;99620.41;;;21.25
76713;BMP280;65640;43.154;25.658;2023-04-25T12:16:52;99630.34;;;20.35
76713;BMP280;65640;43.154;25.658;2023-04-25T12:19:20;99631.88;;;19.87
76713;BMP280;65640;43.154;25.658;2023-04-25T12:21:46;99613.94;;;19.80
76713;BMP280;65640;43.154;25.658;2023-04-25T12:24:15;99609.84;;;19.86
76713;BMP280;65640;43.154;25.658;2023-04-25T12:26:49;99595.94;;;19.93
76713;BMP280;65640;43.154;25.658;2023-04-25T12:29:23;99593.66;;;19.95
76713;BMP280;65640;43.154;25.658;2023-04-25T12:31:50;99601.72;;;19.76
76713;BMP280;65640;43.154;25.658;2023-04-25T12:34:17;99601.78;;;19.79
76713;BMP280;65640;43.154;25.658;2023-04-25T12:36:42;99598.41;;;19.60
76713;BMP280;65640;43.154;25.658;2023-04-25T12:39:08;99599.44;;;19.32
76713;BMP280;65640;43.154;25.658;2023-04-25T12:41:33;99601.13;;;19.21
76713;BMP280;65640;43.154;25.658;2023-04-25T12:43:59;99602.41;;;19.08
76713;BMP280;65640;43.154;25.658;2023-04-25T12:46:24;99604.88;;;19.01
76713;BMP280;65640;43.154;25.658;2023-04-25T12:48:50;99605.81;;;19.09
76713;BMP280;65640;43.154;25.658;2023-04-25T12:51:15;99617.81;;;19.03
76713;BMP280;65640;43.154;25.658;2023-04-25T12:53:41;99606.53;;;18.86
76713;BMP280;65640;43.154;25.658;2023-04-25T12:56:07;99604.31;;;18.73
76713;BMP280;65640;43.154;25.658;2023-04-25T12:58:33;99615.47;;;18.63
76713;BMP280;65640;43.154;25.658;2023-04-25T13:00:59;99625.50;;;18.54
76713;BMP280;65640;43.154;25.658;2023-04-25T13:03:24;99626.38;;;18.42
76713;BMP280;65640;43.154;25.658;2023-04-25T13:05:51;99626.38;;;18.42
76713;BMP280;65640;43.154;25.658;2023-04-25T13:08:18;99628.53;;;18.36
76713;BMP280;65640;43.154;25.658;2023-04-25T13:10:43;99634.50;;;18.33
76713;BMP280;65640;43.154;25.658;2023-04-25T13:13:09;99628.28;;;18.26
76713;BMP280;65640;43.154;25.658;2023-04-25T13:15:34;99635.63;;;18.17
76713;BMP280;65640;43.154;25.658;2023-04-25T13:18:00;99644.84;;;18.07
76713;BMP280;65640;43.154;25.658;2023-04-25T13:20:26;99645.69;;;17.95
76713;BMP280;65640;43.154;25.658;2023-04-25T13:22:51;99644.06;;;17.91
76713;BMP280;65640;43.154;25.658;2023-04-25T13:25:17;99644.84;;;17.91
76713;BMP280;65640;43.154;25.658;2023-04-25T13:27:42;99643.13;;;17.83
76713;BMP280;65640;43.154;25.658;2023-04-25T13:30:09;99635.34;;;17.75
76713;BMP280;65640;43.154;25.658;2023-04-25T13:32:35;99641.41;;;17.75
76713;BMP280;65640;43.154;25.658;2023-04-25T13:35:02;99632.19;;;17.69
76713;BMP280;65640;43.154;25.658;2023-04-25T13:37:28;99616.19;;;17.81
76713;BMP280;65640;43.154;25.658;2023-04-25T13:39:54;99590.94;;;17.68
76713;BMP280;65640;43.154;25.658;2023-04-25T13:42:20;99576.97;;;17.56
76713;BMP280;65640;43.154;25.658;2023-04-25T13:44:46;99584.31;;;17.62
76713;BMP280;65640;43.154;25.658;2023-04-25T13:47:11;99603.94;;;17.89
76713;BMP280;65640;43.154;25.658;2023-04-25T13:49:37;99603.31;;;18.27
76713;BMP280;65640;43.154;25.658;2023-04-25T13:52:02;99609.34;;;18.59
76713;BMP280;65640;43.154;25.658;2023-04-25T13:54:28;99600.09;;;18.87
76713;BMP280;65640;43.154;25.658;2023-04-25T13:56:53;99603.09;;;19.05
76713;BMP280;65640;43.154;25.658;2023-04-25T13:59:23;99597.09;;;19.27
76713;BMP280;65640;43.154;25.658;2023-04-25T14:01:49;99596.34;;;19.50
76713;BMP280;65640;43.154;25.658;2023-04-25T14:04:15;99592.91;;;19.49
76713;BMP280;65640;43.154;25.658;2023-04-25T14:06:40;99588.94;;;19.39